createdAt,value
2019-05-16T00:00:25.292Z,7.4033
2019-05-16T00:01:29.950Z,7.3831
2019-05-16T00:02:33.305Z,7.3831
2019-05-16T00:03:38.288Z,7.3630
2019-05-16T00:04:41.280Z,7.3630
2019-05-16T00:05:53.368Z,7.3529
2019-05-16T00:06:52.300Z,7.3328
2019-05-16T00:07:55.304Z,7.3328
2019-05-16T00:08:58.572Z,7.3328
2019-05-16T00:10:01.308Z,7.3227
2019-05-16T00:11:04.270Z,7.3227
2019-05-16T00:12:08.802Z,7.3126
2019-05-16T00:13:12.273Z,7.3126
2019-05-16T00:14:15.313Z,7.3126
2019-05-16T00:15:18.405Z,7.3126
2019-05-16T00:16:22.317Z,7.2925
2019-05-16T00:17:25.267Z,7.2925
2019-05-16T00:18:28.517Z,7.2824
2019-05-16T00:19:30.360Z,7.2824
2019-05-16T00:20:33.290Z,7.2824
2019-05-16T00:21:38.215Z,7.2522
2019-05-16T00:22:43.321Z,7.2119
2019-05-16T00:23:48.300Z,7.2018
2019-05-16T00:24:51.332Z,7.1716
2019-05-16T00:25:54.275Z,7.1313
2019-05-16T00:26:58.001Z,7.1313
2019-05-16T00:28:01.303Z,7.1011
2019-05-16T00:29:04.295Z,7.0709
2019-05-16T00:30:08.617Z,7.0609
2019-05-16T00:31:12.315Z,7.0609
2019-05-16T00:32:15.281Z,7.0609
2019-05-16T00:33:18.467Z,7.0609
2019-05-16T00:34:21.291Z,7.0709
2019-05-16T00:35:24.338Z,7.0609
2019-05-16T00:36:27.803Z,7.0508
2019-05-16T00:37:31.267Z,7.0508
2019-05-16T00:38:34.311Z,7.0306
2019-05-16T00:39:38.796Z,7.0306
2019-05-16T00:40:42.372Z,7.0306
2019-05-16T00:41:45.264Z,7.0206
2019-05-16T00:42:49.105Z,7.0206
2019-05-16T00:43:52.285Z,7.0004
2019-05-16T00:44:55.331Z,7.0004
2019-05-16T00:45:58.947Z,6.9904
2019-05-16T00:47:02.332Z,6.9702
2019-05-16T00:48:05.282Z,6.9601
2019-05-16T00:49:08.483Z,6.9601
2019-05-16T00:50:11.366Z,6.9501
2019-05-16T00:51:14.285Z,6.9299
2019-05-16T00:52:18.367Z,6.9199
2019-05-16T00:53:21.311Z,6.8896
2019-05-16T00:54:24.336Z,6.8796
2019-05-16T00:55:28.366Z,6.8494
2019-05-16T00:56:31.277Z,6.8494
2019-05-16T00:57:33.340Z,6.8393
2019-05-16T00:58:37.804Z,6.8393
2019-05-16T00:59:41.326Z,6.8192
2019-05-16T01:00:44.282Z,6.8192
2019-05-16T01:01:50.060Z,6.8192
2019-05-16T01:02:53.299Z,6.8091
2019-05-16T01:03:58.468Z,6.7889
2019-05-16T01:05:01.328Z,6.7789
2019-05-16T01:06:15.834Z,6.7487
2019-05-16T01:07:12.281Z,6.7688
2019-05-16T01:08:15.305Z,6.7487
2019-05-16T01:09:18.848Z,6.7184
2019-05-16T01:10:22.295Z,6.7184
2019-05-16T01:11:27.634Z,6.6983
2019-05-16T01:12:29.309Z,6.6983
2019-05-16T01:13:32.301Z,6.6882
2019-05-16T01:14:35.311Z,6.6681
2019-05-16T01:15:38.319Z,6.6681
2019-05-16T01:16:41.291Z,6.6681
2019-05-16T01:17:44.324Z,6.6681
2019-05-16T01:18:48.617Z,6.6580
2019-05-16T01:19:52.341Z,6.6580
2019-05-16T01:20:55.303Z,6.6379
2019-05-16T01:21:59.014Z,6.6278
2019-05-16T01:23:02.306Z,6.6379
2019-05-16T01:24:05.318Z,6.6177
2019-05-16T01:25:09.412Z,6.6177
2019-05-16T01:26:12.313Z,6.5976
2019-05-16T01:27:15.291Z,6.5976
2019-05-16T01:28:19.294Z,6.5976
2019-05-16T01:29:22.299Z,6.5875
2019-05-16T01:30:25.344Z,6.5674
2019-05-16T01:31:28.303Z,6.5674
2019-05-16T01:32:32.213Z,6.5573
2019-05-16T01:33:35.291Z,6.5372
2019-05-16T01:34:38.352Z,6.5170
2019-05-16T01:35:41.836Z,6.5170
2019-05-16T01:36:45.342Z,6.5070
2019-05-16T01:37:48.748Z,6.5070
2019-05-16T01:38:52.349Z,6.4868
2019-05-16T01:39:55.295Z,6.4868
2019-05-16T01:40:58.483Z,6.4566
2019-05-16T01:42:01.310Z,6.4465
2019-05-16T01:43:03.283Z,6.4465
2019-05-16T01:44:07.870Z,6.4365
2019-05-16T01:45:11.327Z,6.4163
2019-05-16T01:46:18.048Z,6.4163
2019-05-16T01:47:23.305Z,6.4062
2019-05-16T01:48:29.150Z,6.3861
2019-05-16T01:49:34.291Z,6.3760
2019-05-16T01:50:38.818Z,6.3559
2019-05-16T01:51:42.277Z,6.3458
2019-05-16T01:52:45.302Z,6.3458
2019-05-16T01:53:48.845Z,6.3458
2019-05-16T01:54:51.266Z,6.3257
2019-05-16T01:55:54.352Z,6.3257
2019-05-16T01:56:59.377Z,6.3257
2019-05-16T01:58:03.352Z,6.3257
2019-05-16T01:59:08.869Z,6.3055
2019-05-16T02:00:11.295Z,6.3257
2019-05-16T02:01:15.911Z,6.3055
2019-05-16T02:02:19.305Z,6.2955
2019-05-16T02:03:22.312Z,6.2955
2019-05-16T02:04:25.274Z,6.2955
2019-05-16T02:05:28.306Z,6.2955
2019-05-16T02:06:31.298Z,6.2753
2019-05-16T02:07:34.322Z,6.2753
2019-05-16T02:08:38.032Z,6.2753
2019-05-16T02:09:41.308Z,6.2753
2019-05-16T02:10:44.276Z,6.2753
2019-05-16T02:11:48.107Z,6.2753
2019-05-16T02:12:51.289Z,6.2653
2019-05-16T02:13:54.293Z,6.2653
2019-05-16T02:14:58.728Z,6.2753
2019-05-16T02:16:02.297Z,6.2653
2019-05-16T02:17:05.332Z,6.2653
2019-05-16T02:18:08.479Z,6.2552
2019-05-16T02:19:11.325Z,6.2552
2019-05-16T02:20:14.305Z,6.2552
2019-05-16T02:21:18.189Z,6.2552
2019-05-16T02:22:21.296Z,6.2552
2019-05-16T02:23:24.285Z,6.2350
2019-05-16T02:24:28.494Z,6.2250
2019-05-16T02:25:30.280Z,6.2048
2019-05-16T02:26:33.328Z,6.2048
2019-05-16T02:27:40.598Z,6.1948
2019-05-16T02:28:44.341Z,6.1746
2019-05-16T02:29:47.270Z,6.1646
2019-05-16T02:30:51.368Z,6.1646
2019-05-16T02:31:55.289Z,6.1444
2019-05-16T02:33:01.088Z,6.1243
2019-05-16T02:34:04.806Z,6.1142
2019-05-16T02:35:11.264Z,6.0941
2019-05-16T02:36:15.331Z,6.0840
2019-05-16T02:37:25.811Z,6.0840
2019-05-16T02:38:26.315Z,6.0739
2019-05-16T02:39:30.589Z,6.0538
2019-05-16T02:40:33.306Z,6.0538
2019-05-16T02:41:36.257Z,6.0437
2019-05-16T02:42:41.951Z,6.0236
2019-05-16T02:43:45.279Z,6.0236
2019-05-16T02:44:51.105Z,5.9933
2019-05-16T02:45:54.252Z,5.9933
2019-05-16T02:46:57.248Z,5.9833
2019-05-16T02:48:01.346Z,5.9933
2019-05-16T02:49:04.294Z,5.9430
2019-05-16T02:50:06.311Z,5.9430
2019-05-16T02:51:11.079Z,5.9430
2019-05-16T02:52:14.319Z,5.9732
2019-05-16T02:53:17.307Z,5.9430
2019-05-16T02:54:21.813Z,5.9329
2019-05-16T02:55:25.303Z,5.9329
2019-05-16T02:56:27.319Z,5.9329
2019-05-16T02:57:31.660Z,5.9128
2019-05-16T02:58:35.303Z,5.9128
2019-05-16T02:59:41.275Z,5.9329
2019-05-16T03:00:44.286Z,5.9027
2019-05-16T03:01:47.315Z,5.9027
2019-05-16T03:02:50.523Z,5.9027
2019-05-16T03:03:53.323Z,5.8926
2019-05-16T03:04:56.284Z,5.8926
2019-05-16T03:06:01.392Z,5.8624
2019-05-16T03:07:04.315Z,5.8725
2019-05-16T03:08:07.284Z,5.8725
2019-05-16T03:09:11.243Z,5.8725
2019-05-16T03:10:14.299Z,5.8624
2019-05-16T03:11:20.711Z,5.8624
2019-05-16T03:12:23.272Z,5.8423
2019-05-16T03:13:26.337Z,5.8423
2019-05-16T03:14:31.619Z,5.8322
2019-05-16T03:15:34.298Z,5.8322
2019-05-16T03:16:37.284Z,5.8322
2019-05-16T03:17:40.446Z,5.8322
2019-05-16T03:18:43.331Z,5.8322
2019-05-16T03:19:46.284Z,5.8221
2019-05-16T03:20:51.007Z,5.8221
2019-05-16T03:21:54.277Z,5.8221
2019-05-16T03:22:57.324Z,5.8221
2019-05-16T03:24:00.854Z,5.8221
2019-05-16T03:25:04.298Z,5.8221
2019-05-16T03:26:07.285Z,5.8221
2019-05-16T03:27:10.825Z,5.7919
2019-05-16T03:28:14.305Z,5.7516
2019-05-16T03:29:17.314Z,5.7315
2019-05-16T03:30:23.728Z,5.7214
2019-05-16T03:31:26.282Z,5.7114
2019-05-16T03:32:34.060Z,5.6912
2019-05-16T03:33:48.442Z,5.6912
2019-05-16T03:34:45.328Z,5.6812
2019-05-16T03:35:53.657Z,5.6912
2019-05-16T03:36:56.336Z,5.6912
2019-05-16T03:38:01.451Z,5.6812
2019-05-16T03:39:10.488Z,5.6610
2019-05-16T03:40:13.274Z,5.6610
2019-05-16T03:41:16.319Z,5.6610
2019-05-16T03:42:20.461Z,5.6509
2019-05-16T03:43:23.277Z,5.6509
2019-05-16T03:44:26.352Z,5.6509
2019-05-16T03:45:31.791Z,5.6409
2019-05-16T03:46:36.377Z,5.6409
2019-05-16T03:47:42.619Z,5.6509
2019-05-16T03:48:46.346Z,5.6509
2019-05-16T03:49:51.728Z,5.6409
2019-05-16T03:50:55.284Z,5.6409
2019-05-16T03:52:01.342Z,5.6409
2019-05-16T03:53:04.306Z,5.6207
2019-05-16T03:54:07.352Z,5.6409
2019-05-16T03:55:10.999Z,5.6207
2019-05-16T03:56:14.295Z,5.6409
2019-05-16T03:57:20.907Z,5.6409
2019-05-16T03:58:24.310Z,5.6509
2019-05-16T03:59:27.326Z,5.6409
2019-05-16T04:00:31.586Z,5.6610
2019-05-16T04:01:33.296Z,5.6509
2019-05-16T04:02:35.489Z,5.6509
2019-05-16T04:03:41.229Z,5.6610
2019-05-16T04:04:44.301Z,5.6509
2019-05-16T04:05:47.282Z,5.6610
2019-05-16T04:06:50.764Z,5.6912
2019-05-16T04:08:10.161Z,5.7114
2019-05-16T04:09:01.717Z,5.6912
2019-05-16T04:10:06.352Z,5.7214
2019-05-16T04:11:11.734Z,5.7214
2019-05-16T04:12:14.262Z,5.7214
2019-05-16T04:13:17.302Z,5.7214
2019-05-16T04:14:21.365Z,5.7516
2019-05-16T04:15:24.265Z,5.7617
2019-05-16T04:16:31.318Z,5.7516
2019-05-16T04:17:34.293Z,5.7617
2019-05-16T04:18:37.277Z,5.7617
2019-05-16T04:19:41.531Z,5.7919
2019-05-16T04:20:44.300Z,5.7919
2019-05-16T04:21:50.824Z,5.8020
2019-05-16T04:22:54.300Z,5.8221
2019-05-16T04:23:57.321Z,5.8322
2019-05-16T04:25:01.896Z,5.8322
2019-05-16T04:26:05.287Z,5.8624
2019-05-16T04:27:07.291Z,5.8725
2019-05-16T04:28:11.578Z,5.8926
2019-05-16T04:29:14.333Z,5.8926
2019-05-16T04:30:17.362Z,5.8926
2019-05-16T04:31:22.087Z,5.9027
2019-05-16T04:32:25.351Z,5.9128
2019-05-16T04:33:30.987Z,5.9128
2019-05-16T04:34:34.351Z,5.9430
2019-05-16T04:35:37.288Z,5.9732
2019-05-16T04:36:40.829Z,5.9430
2019-05-16T04:37:44.321Z,5.9732
2019-05-16T04:38:47.331Z,5.9732
2019-05-16T04:39:50.764Z,5.9732
2019-05-16T04:40:54.294Z,5.9833
2019-05-16T04:41:57.306Z,5.9833
2019-05-16T04:43:01.365Z,5.9732
2019-05-16T04:44:04.907Z,5.9732
2019-05-16T04:45:11.515Z,5.9329
2019-05-16T04:46:14.317Z,5.9128
2019-05-16T04:47:17.326Z,5.9329
2019-05-16T04:48:22.290Z,5.9128
2019-05-16T04:49:25.352Z,5.9430
2019-05-16T04:50:30.968Z,5.9430
2019-05-16T04:51:34.297Z,5.9430
2019-05-16T04:52:37.291Z,5.9732
2019-05-16T04:53:42.464Z,5.9732
2019-05-16T04:54:46.350Z,5.9833
2019-05-16T04:55:51.566Z,5.9732
2019-05-16T04:56:54.327Z,5.9833
2019-05-16T04:57:57.310Z,5.9833
2019-05-16T04:59:00.550Z,5.9933
2019-05-16T05:00:04.303Z,6.0135
2019-05-16T05:01:07.329Z,5.9933
2019-05-16T05:02:12.220Z,5.9933
2019-05-16T05:03:16.298Z,6.0135
2019-05-16T05:04:21.094Z,6.0135
2019-05-16T05:05:24.339Z,6.0437
2019-05-16T05:06:27.313Z,6.0236
2019-05-16T05:07:31.242Z,6.0538
2019-05-16T05:08:49.121Z,6.0739
2019-05-16T05:09:42.326Z,6.0941
2019-05-16T05:10:45.327Z,6.1142
2019-05-16T05:11:48.289Z,6.1243
2019-05-16T05:12:51.461Z,6.1646
2019-05-16T05:13:55.290Z,6.1646
2019-05-16T05:15:00.998Z,6.1646
2019-05-16T05:16:04.306Z,6.1646
2019-05-16T05:17:07.289Z,6.1746
2019-05-16T05:18:10.347Z,6.1746
2019-05-16T05:19:13.314Z,6.1746
2019-05-16T05:20:16.331Z,6.1746
2019-05-16T05:21:20.953Z,6.1746
2019-05-16T05:22:24.302Z,6.1746
2019-05-16T05:23:29.961Z,6.1646
2019-05-16T05:24:33.313Z,6.1444
2019-05-16T05:25:36.314Z,6.1444
2019-05-16T05:26:41.460Z,6.1243
2019-05-16T05:27:45.310Z,6.1646
2019-05-16T05:28:50.573Z,6.1444
2019-05-16T05:29:54.305Z,6.1444
2019-05-16T05:30:59.549Z,6.1646
2019-05-16T05:32:04.702Z,6.1646
2019-05-16T05:33:10.117Z,6.1243
2019-05-16T05:34:13.332Z,6.1444
2019-05-16T05:35:15.313Z,6.1646
2019-05-16T05:36:20.815Z,6.1444
2019-05-16T05:37:24.290Z,6.1444
2019-05-16T05:38:27.273Z,6.1646
2019-05-16T05:39:30.451Z,6.1646
2019-05-16T05:40:33.321Z,6.1746
2019-05-16T05:41:36.365Z,6.2048
2019-05-16T05:42:39.869Z,6.2350
2019-05-16T05:43:42.340Z,6.2653
2019-05-16T05:44:45.296Z,6.2955
2019-05-16T05:45:50.901Z,6.3257
2019-05-16T05:46:54.283Z,6.3559
2019-05-16T05:48:00.003Z,6.3760
2019-05-16T05:49:03.294Z,6.4062
2019-05-16T05:50:06.304Z,6.4163
2019-05-16T05:51:11.265Z,6.4465
2019-05-16T05:52:15.307Z,6.4566
2019-05-16T05:53:20.633Z,6.4868
2019-05-16T05:54:24.282Z,6.5070
2019-05-16T05:55:27.322Z,6.5372
2019-05-16T05:56:30.612Z,6.5573
2019-05-16T05:57:33.357Z,6.5674
2019-05-16T05:58:36.304Z,6.5976
2019-05-16T05:59:40.462Z,6.6177
2019-05-16T06:00:43.305Z,6.6379
2019-05-16T06:01:46.307Z,6.6379
2019-05-16T06:02:50.846Z,6.6580
2019-05-16T06:03:54.295Z,6.6882
2019-05-16T06:04:59.564Z,6.7184
2019-05-16T06:06:03.300Z,6.7688
2019-05-16T06:07:06.340Z,6.8192
2019-05-16T06:08:10.679Z,6.8695
2019-05-16T06:09:25.271Z,6.8796
2019-05-16T06:10:22.317Z,6.9299
2019-05-16T06:11:25.333Z,6.9601
2019-05-16T06:12:30.363Z,7.0004
2019-05-16T06:13:33.289Z,7.0508
2019-05-16T06:14:36.328Z,7.0609
2019-05-16T06:15:39.967Z,7.1112
2019-05-16T06:16:43.302Z,7.1313
2019-05-16T06:17:46.299Z,7.1515
2019-05-16T06:18:50.291Z,7.1716
2019-05-16T06:19:53.302Z,7.1817
2019-05-16T06:20:56.289Z,7.2018
2019-05-16T06:22:01.002Z,7.2119
2019-05-16T06:23:04.307Z,7.2119
2019-05-16T06:24:07.355Z,7.2119
2019-05-16T06:25:13.145Z,7.2119
2019-05-16T06:26:20.148Z,7.2321
2019-05-16T06:27:23.301Z,7.2421
2019-05-16T06:28:26.349Z,7.2522
2019-05-16T06:29:30.965Z,7.2925
2019-05-16T06:30:34.319Z,7.3126
2019-05-16T06:31:37.307Z,7.3227
2019-05-16T06:32:40.342Z,7.3529
2019-05-16T06:33:43.355Z,7.3831
2019-05-16T06:34:46.297Z,7.4033
2019-05-16T06:35:51.330Z,7.4536
2019-05-16T06:36:54.287Z,7.4738
2019-05-16T06:37:57.297Z,7.5040
2019-05-16T06:39:00.318Z,7.5040
2019-05-16T06:40:03.329Z,7.5342
2019-05-16T06:41:06.309Z,7.5342
2019-05-16T06:42:09.835Z,7.5644
2019-05-16T06:43:13.328Z,7.5845
2019-05-16T06:44:16.308Z,7.6349
2019-05-16T06:45:20.485Z,7.6852
2019-05-16T06:46:24.325Z,7.7155
2019-05-16T06:47:27.334Z,7.7457
2019-05-16T06:48:30.603Z,7.7960
2019-05-16T06:49:34.343Z,7.8665
2019-05-16T06:50:37.298Z,7.8766
2019-05-16T06:51:40.344Z,7.9269
2019-05-16T06:52:45.773Z,7.9471
2019-05-16T06:53:50.073Z,7.9672
2019-05-16T06:54:53.917Z,7.9471
2019-05-16T06:55:56.301Z,7.9370
2019-05-16T06:57:00.136Z,7.9370
2019-05-16T06:58:03.334Z,7.9370
2019-05-16T06:59:06.335Z,7.9471
2019-05-16T07:00:10.980Z,7.9672
2019-05-16T07:01:14.337Z,8.0075
2019-05-16T07:02:27.791Z,8.0579
2019-05-16T07:03:25.359Z,8.0881
2019-05-16T07:04:30.329Z,8.1586
2019-05-16T07:05:32.345Z,8.2391
2019-05-16T07:06:51.668Z,8.2693
2019-05-16T07:07:43.326Z,8.3096
2019-05-16T07:08:46.292Z,8.3398
2019-05-16T07:09:59.918Z,8.4103
2019-05-16T07:10:57.353Z,8.4808
2019-05-16T07:12:00.311Z,8.5211
2019-05-16T07:13:03.355Z,8.5614
2019-05-16T07:14:06.297Z,8.6319
2019-05-16T07:15:12.464Z,8.7024
2019-05-16T07:16:15.310Z,8.7628
2019-05-16T07:17:20.198Z,8.7930
2019-05-16T07:18:22.349Z,8.8132
2019-05-16T07:19:25.335Z,8.8434
2019-05-16T07:20:30.205Z,8.8232
2019-05-16T07:21:33.273Z,8.7830
2019-05-16T07:22:36.340Z,8.7628
2019-05-16T07:23:40.466Z,8.7628
2019-05-16T07:24:42.327Z,8.7628
2019-05-16T07:25:45.328Z,8.7830
2019-05-16T07:26:50.023Z,8.8132
2019-05-16T07:27:53.341Z,8.8132
2019-05-16T07:28:56.297Z,8.8132
2019-05-16T07:30:01.069Z,8.8132
2019-05-16T07:31:14.840Z,8.8132
2019-05-16T07:32:12.681Z,8.8434
2019-05-16T07:33:16.314Z,8.8232
2019-05-16T07:34:20.643Z,8.8535
2019-05-16T07:35:24.313Z,8.8837
2019-05-16T07:36:27.341Z,8.8837
2019-05-16T07:37:31.610Z,8.8837
2019-05-16T07:38:35.311Z,8.8837
2019-05-16T07:39:39.295Z,8.8837
2019-05-16T07:40:45.301Z,8.8837
2019-05-16T07:41:50.663Z,8.8736
2019-05-16T07:42:54.323Z,8.8837
2019-05-16T07:43:57.327Z,8.9139
2019-05-16T07:45:00.687Z,8.9240
2019-05-16T07:46:04.337Z,8.9743
2019-05-16T07:47:07.310Z,9.0247
2019-05-16T07:48:10.758Z,9.1254
2019-05-16T07:49:14.306Z,9.2059
2019-05-16T07:50:16.335Z,9.2865
2019-05-16T07:51:20.519Z,9.3973
2019-05-16T07:52:23.363Z,9.4778
2019-05-16T07:53:26.336Z,9.5786
2019-05-16T07:54:34.087Z,9.6591
2019-05-16T07:55:37.315Z,9.7598
2019-05-16T07:56:40.890Z,9.8605
2019-05-16T07:57:44.353Z,9.9411
2019-05-16T07:58:47.311Z,10.0116
2019-05-16T07:59:50.667Z,10.0922
2019-05-16T08:01:02.752Z,10.1727
2019-05-16T08:02:02.332Z,10.2231
2019-05-16T08:03:05.325Z,10.2533
2019-05-16T08:04:10.438Z,10.2634
2019-05-16T08:05:14.352Z,10.2634
2019-05-16T08:06:17.313Z,10.3036
2019-05-16T08:07:20.360Z,10.3036
2019-05-16T08:08:24.545Z,10.3036
2019-05-16T08:09:27.317Z,10.2634
2019-05-16T08:10:37.935Z,10.2634
2019-05-16T08:11:40.656Z,10.2533
2019-05-16T08:12:44.394Z,10.2332
2019-05-16T08:13:47.340Z,10.2231
2019-05-16T08:14:50.378Z,10.2533
2019-05-16T08:15:53.302Z,10.2835
2019-05-16T08:16:56.312Z,10.3439
2019-05-16T08:18:03.242Z,10.4044
2019-05-16T08:19:06.347Z,10.4446
2019-05-16T08:20:10.893Z,10.4446
2019-05-16T08:21:16.893Z,10.4648
2019-05-16T08:22:22.529Z,10.4950
2019-05-16T08:23:26.334Z,10.4849
2019-05-16T08:24:30.580Z,10.4950
2019-05-16T08:25:36.304Z,10.5353
2019-05-16T08:27:47.362Z,10.5856
2019-05-16T08:28:50.668Z,10.6058
2019-05-16T08:29:54.304Z,10.6662
2019-05-16T08:31:00.594Z,10.6863
2019-05-16T08:32:04.311Z,10.7065
2019-05-16T08:33:07.314Z,10.7166
2019-05-16T08:34:12.185Z,10.7166
2019-05-16T08:35:15.322Z,10.7568
2019-05-16T08:36:20.640Z,10.7468
2019-05-16T08:38:32.318Z,10.7870
2019-05-16T08:39:35.311Z,10.8173
2019-05-16T08:41:01.221Z,10.8575
2019-05-16T08:41:46.289Z,10.9180
2019-05-16T08:42:51.658Z,10.9583
2019-05-16T08:43:54.330Z,11.0388
2019-05-16T08:44:57.308Z,11.1194
2019-05-16T08:46:01.038Z,11.1899
2019-05-16T08:47:06.272Z,11.3208
2019-05-16T08:48:11.502Z,11.3712
2019-05-16T08:49:14.374Z,11.4819
2019-05-16T08:50:08.650Z,10.7568
2019-05-16T08:50:17.299Z,11.5927
2019-05-16T08:51:22.182Z,11.6833
2019-05-16T08:52:25.266Z,11.7538
2019-05-16T08:53:31.401Z,11.8143
2019-05-16T08:54:36.396Z,11.8344
2019-05-16T08:55:43.328Z,11.8747
2019-05-16T08:56:46.333Z,11.9049
2019-05-16T08:57:53.017Z,11.9150
2019-05-16T08:58:56.345Z,11.9955
2019-05-16T09:00:01.376Z,12.0963
2019-05-16T09:01:05.303Z,12.2675
2019-05-16T09:02:12.001Z,12.3682
2019-05-16T09:03:15.320Z,12.4588
2019-05-16T09:04:23.862Z,12.4487
2019-05-16T09:05:26.440Z,12.4487
2019-05-16T09:06:31.993Z,12.4991
2019-05-16T09:07:35.365Z,12.5797
2019-05-16T09:08:38.339Z,12.7307
2019-05-16T09:09:48.696Z,12.8717
2019-05-16T09:10:10.717Z,10.5655
2019-05-16T09:11:00.766Z,12.9724
2019-05-16T09:11:57.575Z,13.0026
2019-05-16T09:13:00.383Z,13.0026
2019-05-16T09:14:03.313Z,13.0530
2019-05-16T09:15:07.644Z,13.0832
2019-05-16T09:16:11.331Z,13.0127
2019-05-16T09:17:14.339Z,12.9724
2019-05-16T09:18:17.869Z,12.8717
2019-05-16T09:19:21.344Z,12.9422
2019-05-16T09:20:24.299Z,13.1638
2019-05-16T09:21:27.640Z,13.2242
2019-05-16T09:22:31.305Z,13.2242
2019-05-16T09:23:34.305Z,13.2242
2019-05-16T09:24:37.824Z,13.2544
2019-05-16T09:25:41.264Z,13.2242
2019-05-16T09:26:47.161Z,13.1537
2019-05-16T09:27:50.312Z,13.0832
2019-05-16T09:28:53.299Z,12.9724
2019-05-16T09:29:56.900Z,13.1940
2019-05-16T09:31:00.300Z,13.4659
2019-05-16T09:32:15.918Z,13.4860
2019-05-16T09:33:11.266Z,13.4055
2019-05-16T09:34:17.302Z,13.3047
2019-05-16T09:35:21.332Z,13.1638
2019-05-16T09:36:24.389Z,13.0832
2019-05-16T09:37:27.299Z,12.9825
2019-05-16T09:38:30.302Z,12.9120
2019-05-16T09:39:33.319Z,12.8314
2019-05-16T09:40:38.877Z,12.7911
2019-05-16T09:41:50.609Z,12.7307
2019-05-16T09:42:50.310Z,12.6501
2019-05-16T09:43:53.346Z,12.6099
2019-05-16T09:44:57.740Z,12.5696
2019-05-16T09:46:07.590Z,12.5394
2019-05-16T09:47:09.311Z,12.5293
2019-05-16T09:48:12.339Z,12.4890
2019-05-16T09:49:20.392Z,12.5293
2019-05-16T09:50:23.321Z,12.5494
2019-05-16T09:51:27.154Z,12.5696
2019-05-16T09:52:30.341Z,12.5998
2019-05-16T09:53:33.305Z,12.6199
2019-05-16T09:54:37.902Z,12.5998
2019-05-16T09:55:41.289Z,12.5696
2019-05-16T09:56:46.369Z,12.5494
2019-05-16T09:57:50.346Z,12.5494
2019-05-16T09:58:52.313Z,12.5394
2019-05-16T09:59:57.203Z,12.4991
2019-05-16T10:01:00.314Z,12.4890
2019-05-16T10:02:02.361Z,12.4991
2019-05-16T10:03:07.096Z,12.4991
2019-05-16T10:04:10.287Z,12.4890
2019-05-16T10:05:13.873Z,12.4890
2019-05-16T10:06:19.135Z,12.4689
2019-05-16T10:07:22.370Z,12.4689
2019-05-16T10:08:26.554Z,12.4588
2019-05-16T10:09:40.735Z,12.4890
2019-05-16T10:10:38.330Z,12.5394
2019-05-16T10:11:42.550Z,12.6199
2019-05-16T10:12:46.287Z,12.7307
2019-05-16T10:13:49.371Z,12.7911
2019-05-16T10:14:52.310Z,12.8314
2019-05-16T10:15:55.336Z,12.8717
2019-05-16T10:16:58.328Z,12.9422
2019-05-16T10:18:01.320Z,12.9825
2019-05-16T10:19:04.291Z,13.0328
2019-05-16T10:20:07.886Z,13.0933
2019-05-16T10:21:11.351Z,13.0530
2019-05-16T10:22:16.888Z,13.0328
2019-05-16T10:23:20.335Z,13.0026
2019-05-16T10:27:39.680Z,13.3652
2019-05-16T10:28:42.304Z,13.4558
2019-05-16T10:29:48.094Z,13.4357
2019-05-16T10:30:52.366Z,13.4055
2019-05-16T10:31:56.860Z,13.4055
2019-05-16T10:33:00.978Z,13.3853
2019-05-16T10:34:03.350Z,13.4055
2019-05-16T10:35:06.332Z,13.4558
2019-05-16T10:36:09.333Z,13.6270
2019-05-16T10:37:12.311Z,13.8083
2019-05-16T10:38:15.305Z,13.9191
2019-05-16T10:39:18.303Z,14.1507
2019-05-16T10:40:21.341Z,14.4427
2019-05-16T10:41:24.318Z,14.5837
2019-05-16T10:42:28.906Z,14.6341
2019-05-16T10:43:32.296Z,14.7046
2019-05-16T10:44:38.542Z,14.6844
2019-05-16T10:45:42.303Z,14.5535
2019-05-16T10:46:47.645Z,14.4528
2019-05-16T10:47:50.290Z,14.4830
2019-05-16T10:48:52.627Z,14.6341
2019-05-16T10:49:56.487Z,14.6643
2019-05-16T10:51:00.296Z,14.5837
2019-05-16T10:52:03.341Z,14.5132
2019-05-16T10:53:23.699Z,14.5837
2019-05-16T10:54:17.715Z,14.5938
2019-05-16T10:55:21.329Z,14.6643
2019-05-16T10:56:24.356Z,14.9664
2019-05-16T10:57:29.804Z,15.3491
2019-05-16T10:58:41.401Z,15.5707
2019-05-16T11:00:06.832Z,15.5707
2019-05-16T11:01:11.159Z,15.9131
2019-05-16T11:01:59.686Z,16.2756
2019-05-16T11:03:03.317Z,16.3461
2019-05-16T11:04:07.474Z,16.3058
2019-05-16T11:05:25.133Z,16.1951
2019-05-16T11:06:25.580Z,16.0843
2019-05-16T11:07:29.878Z,15.9735
2019-05-16T11:08:33.344Z,15.9131
2019-05-16T11:09:39.175Z,15.9433
2019-05-16T11:10:42.463Z,15.9534
2019-05-16T11:11:47.621Z,15.9232
2019-05-16T11:12:55.209Z,15.9232
2019-05-16T11:13:58.332Z,15.9836
2019-05-16T11:15:01.351Z,16.2555
2019-05-16T11:16:06.941Z,16.5778
2019-05-16T11:17:13.864Z,16.7087
2019-05-16T11:18:17.640Z,16.7188
2019-05-16T11:19:24.445Z,16.9403
2019-05-16T11:20:28.369Z,17.1619
2019-05-16T11:21:31.350Z,17.3331
2019-05-16T11:22:36.787Z,17.3431
2019-05-16T11:23:40.301Z,17.3834
2019-05-16T11:24:43.330Z,17.2726
2019-05-16T11:25:47.098Z,17.2424
2019-05-16T11:26:50.446Z,17.4841
2019-05-16T11:27:53.281Z,17.5244
2019-05-16T11:28:57.351Z,17.5143
2019-05-16T11:30:00.313Z,17.3935
2019-05-16T11:31:04.029Z,17.2324
2019-05-16T11:32:07.356Z,17.2424
2019-05-16T11:33:10.307Z,17.4539
2019-05-16T11:34:13.333Z,17.5244
2019-05-16T11:35:17.135Z,17.6453
2019-05-16T11:36:20.323Z,17.8467
2019-05-16T11:37:23.347Z,18.0280
2019-05-16T11:38:26.343Z,18.3301
2019-05-16T11:39:29.281Z,18.2596
2019-05-16T11:40:32.288Z,18.1085
2019-05-16T11:41:35.364Z,17.9172
2019-05-16T11:42:38.396Z,17.8467
2019-05-16T11:43:41.312Z,17.9474
2019-05-16T11:44:47.592Z,18.2596
2019-05-16T11:45:51.336Z,18.5919
2019-05-16T11:46:54.300Z,18.9243
2019-05-16T11:47:57.383Z,19.1861
2019-05-16T11:49:00.317Z,19.3875
2019-05-16T11:50:03.319Z,19.6191
2019-05-16T11:51:07.081Z,19.7601
2019-05-16T11:52:10.323Z,19.9515
2019-05-16T11:53:13.379Z,20.0925
2019-05-16T11:54:16.338Z,20.2133
2019-05-16T11:55:19.328Z,20.4047
2019-05-16T11:56:22.286Z,20.3644
2019-05-16T11:57:25.349Z,20.3644
2019-05-16T11:58:28.343Z,20.1126
2019-05-16T11:59:31.348Z,20.1328
2019-05-16T12:00:33.303Z,20.1831
2019-05-16T12:01:36.952Z,20.2838
2019-05-16T12:02:42.674Z,20.3745
2019-05-16T12:03:46.829Z,20.4449
2019-05-16T12:04:50.306Z,20.5557
2019-05-16T12:05:53.307Z,20.4449
2019-05-16T12:06:57.433Z,20.3140
2019-05-16T12:08:00.341Z,20.1126
2019-05-16T12:09:03.342Z,19.8608
2019-05-16T12:10:07.610Z,19.6997
2019-05-16T12:11:10.321Z,19.5084
2019-05-16T12:12:13.304Z,19.1559
2019-05-16T12:13:25.405Z,18.8437
2019-05-16T12:14:24.344Z,18.5315
2019-05-16T12:15:27.518Z,18.5919
2019-05-16T12:16:30.358Z,18.7329
2019-05-16T12:17:33.300Z,18.9243
2019-05-16T12:18:37.286Z,19.1458
2019-05-16T12:19:43.994Z,19.2969
2019-05-16T12:20:47.378Z,19.3573
2019-05-16T12:21:50.280Z,19.3069
2019-05-16T12:22:53.322Z,19.1559
2019-05-16T12:23:56.346Z,18.9948
2019-05-16T12:24:59.304Z,18.7329
2019-05-16T12:26:02.353Z,18.4006
2019-05-16T12:27:07.955Z,18.0078
2019-05-16T12:28:11.346Z,17.6352
2019-05-16T12:29:17.100Z,17.4136
2019-05-16T12:30:20.304Z,17.3129
2019-05-16T12:31:23.286Z,17.2928
2019-05-16T12:32:27.684Z,17.3633
2019-05-16T12:33:30.376Z,17.5244
2019-05-16T12:34:32.453Z,17.6755
2019-05-16T12:35:36.961Z,17.8467
2019-05-16T12:36:39.258Z,18.0078
2019-05-16T12:37:41.510Z,18.0078
2019-05-16T12:38:46.623Z,17.9172
2019-05-16T12:39:50.299Z,17.7762
2019-05-16T12:40:53.309Z,17.5748
2019-05-16T12:41:59.227Z,17.4237
2019-05-16T12:43:03.305Z,17.2626
2019-05-16T12:44:07.548Z,17.1518
2019-05-16T12:45:11.318Z,17.1518
2019-05-16T12:46:14.303Z,17.3935
2019-05-16T12:47:17.327Z,17.7057
2019-05-16T12:48:20.428Z,18.0280
2019-05-16T12:49:24.327Z,18.2193
2019-05-16T12:50:28.655Z,18.2596
2019-05-16T12:51:32.328Z,18.3804
2019-05-16T12:52:38.247Z,18.4006
2019-05-16T12:53:41.367Z,18.2294
2019-05-16T12:54:43.292Z,18.0078
2019-05-16T12:55:47.633Z,17.7560
2019-05-16T12:56:51.328Z,17.4942
2019-05-16T12:57:58.830Z,17.2424
2019-05-16T12:59:02.381Z,16.9705
2019-05-16T13:00:07.229Z,16.9101
2019-05-16T13:01:10.346Z,16.9403
2019-05-16T13:02:13.268Z,16.8597
2019-05-16T13:03:15.324Z,16.8698
2019-05-16T13:04:19.269Z,17.0511
2019-05-16T13:05:22.306Z,17.2223
2019-05-16T13:06:27.601Z,17.4539
2019-05-16T13:07:31.295Z,17.6352
2019-05-16T13:08:34.380Z,17.6352
2019-05-16T13:09:37.301Z,17.5647
2019-05-16T13:10:40.326Z,17.4539